Airport Name : Bhuj

Other Name : Bhuj

ICAO : VABJ

IATA : BHJ

FAA :

Latitude : 23.287828

Longitude : 69.670147

Country : India

Local Date and Time : 23 Jan 2021 00:24

 

TAF (Terminal Aerodrome Forecast)

TAF VABJ 221700Z 2218/2303 27005KT 5000 HZ NSC BECMG 2221/2223 2000 BR HZ SCT006 SCT010 BECMG 2301/2303 VRB03KT 0500 FG

 

METAR (METeorological Aerodrome Report)

To Charter a Jet Click here.